Airfield :
LOGIN :

Register | Disclaimer

   EN    FR    IT 

 










Legend :    VFR   Marginal VFR   IFR   Intensive IFR   Very Intensive IFR
Visi :
Ceiling :
>= 8 km
>= 3000ft
5 to 8 km
1000 to 3000 ft
1500m to 5 km
500 to 1000 ft
800 to 1500m
200 to 500 ft
< 800m
< 200 ft
Symbols :   Thunderstorms  Fog  Heavy snow  Heavy precipitations  Wind > 20 kt
SIGMETs :     Misc.  Thunderstorms  Icing  Turbulence  Mountain Waves  Volcanic Ashes







- Airport Elevation : 265 ft
- Download approach charts


LFMC - Le Luc

CURRENT METAR :
  • 201500Z AUTO 14008KT 110V190 9999 ////// 31/10 Q1015

EXPIRED METARs :
  • 201430Z AUTO 14011KT 110V170 9999 ////// 31/10 Q1015
  • 201400Z AUTO 15007KT 090V210 9999 ////// 31/10 Q1015
  • 201330Z AUTO 14009KT 100V180 9999 ////// 32/10 Q1015
  • 201300Z AUTO 14008KT 100V190 9999 ////// 32/08 Q1015
  • 201230Z AUTO 14010KT 110V180 9999 ////// 32/08 Q1015

TAF N/A
No reported NOTAMs for that airfield.
1 SIGMET reported for the Marseille FIR (LFMM) :
 
Severe turbulence
LFMM SIGMET 4 VALID 201400/201800 LFPW
LFMM MARSEILLE FIR/UIR SEV TURB FCST WI N4300 E00415 - N4430 E00430 - N4430 E00500 - N4300 E00530 SFC/FL050 STNR NC=



MET'MAP, your aeronautical weather chart ! - Copyright ORBIFLY December 2007 - Disclaimer

ORBIFLY MET'MAP TEAM :

Programming & Development : Alexandra Zaïnal
Concept & Development : Baudouin d'Aumeries
Co-Development & Prog : Marc-Olivier Méhu
Technical & hardware support : Manuel Goepfert

Contact : metmap@orbifly.com




SOURCES & CREDITS :

   NOAA